Conda, Idaho
Current Conditions -  °F | °C
As of 11:55 PM on Sunday 23 Nov 2014 (Local Time) from KAFO Reporting Station
Unknown Precip Unknown Precip  
Wind Chill: 19°   Ceiling: 500
Heat Index: 25°   Visibility: 2mi
Dew Point: 23°   Wind: 5mph
Humidity: 93%   Direction: 150°SSE
Pressure: 30.04"   Gusts: NA
Location:  42.73°N, 111.53°W
Report Text: KAFO 240655Z AUTO 15004KT 2SM UP OVC005 M04/M05 A3004 RMK AO2
Loading
Personal Weather Stations






























Interactive Weather Map New forecast layout! Learn more

10-Day Weather Forecast

Advertisements
Track Severe Weather on mobile